sensor_id;sensor_type;location;lat;lon;timestamp;temperature;humidity
20141;DHT22;10231;47.702;9.826;2022-08-01T00:00:21;20.60;99.90
20141;DHT22;10231;47.702;9.826;2022-08-01T00:02:46;20.60;99.90
20141;DHT22;10231;47.702;9.826;2022-08-01T00:05:12;20.50;99.90
20141;DHT22;10231;47.702;9.826;2022-08-01T00:07:38;20.50;99.90
20141;DHT22;10231;47.702;9.826;2022-08-01T00:10:10;20.40;99.90
20141;DHT22;10231;47.702;9.826;2022-08-01T00:12:36;20.40;99.90
20141;DHT22;10231;47.702;9.826;2022-08-01T00:15:04;20.40;99.90
20141;DHT22;10231;47.702;9.826;2022-08-01T00:17:29;20.30;99.90
20141;DHT22;10231;47.702;9.826;2022-08-01T00:19:55;20.30;99.90
20141;DHT22;10231;47.702;9.826;2022-08-01T00:22:20;20.20;99.90
20141;DHT22;10231;47.702;9.826;2022-08-01T00:24:46;20.20;99.90
20141;DHT22;10231;47.702;9.826;2022-08-01T00:27:12;20.20;99.90
20141;DHT22;10231;47.702;9.826;2022-08-01T00:29:37;20.10;99.90
20141;DHT22;10231;47.702;9.826;2022-08-01T00:32:03;20.20;99.90
20141;DHT22;10231;47.702;9.826;2022-08-01T00:34:29;20.10;99.90
20141;DHT22;10231;47.702;9.826;2022-08-01T00:36:54;20.10;99.90
20141;DHT22;10231;47.702;9.826;2022-08-01T00:39:20;20.10;99.90
20141;DHT22;10231;47.702;9.826;2022-08-01T00:41:46;20.10;99.90
20141;DHT22;10231;47.702;9.826;2022-08-01T00:44:11;20.10;99.90
20141;DHT22;10231;47.702;9.826;2022-08-01T00:46:37;20.10;99.90
20141;DHT22;10231;47.702;9.826;2022-08-01T00:49:03;20.00;99.90
20141;DHT22;10231;47.702;9.826;2022-08-01T00:51:29;19.90;99.90
20141;DHT22;10231;47.702;9.826;2022-08-01T00:53:55;20.00;99.90
20141;DHT22;10231;47.702;9.826;2022-08-01T00:56:21;19.90;99.90
20141;DHT22;10231;47.702;9.826;2022-08-01T00:58:49;19.90;99.90
20141;DHT22;10231;47.702;9.826;2022-08-01T01:01:14;19.80;99.90
20141;DHT22;10231;47.702;9.826;2022-08-01T01:03:40;19.70;99.90
20141;DHT22;10231;47.702;9.826;2022-08-01T01:17:24;19.80;99.90
20141;DHT22;10231;47.702;9.826;2022-08-01T01:19:54;19.80;99.90
20141;DHT22;10231;47.702;9.826;2022-08-01T01:25:38;19.70;99.90
20141;DHT22;10231;47.702;9.826;2022-08-01T01:30:42;19.70;99.90
20141;DHT22;10231;47.702;9.826;2022-08-01T01:33:10;19.70;99.90
20141;DHT22;10231;47.702;9.826;2022-08-01T01:35:48;19.70;99.90
20141;DHT22;10231;47.702;9.826;2022-08-01T01:38:18;19.60;99.90
20141;DHT22;10231;47.702;9.826;2022-08-01T01:40:46;19.60;99.90
20141;DHT22;10231;47.702;9.826;2022-08-01T01:43:13;19.50;99.90
20141;DHT22;10231;47.702;9.826;2022-08-01T01:45:40;19.40;99.90
20141;DHT22;10231;47.702;9.826;2022-08-01T01:48:09;19.40;99.90
20141;DHT22;10231;47.702;9.826;2022-08-01T01:50:36;19.40;99.90
20141;DHT22;10231;47.702;9.826;2022-08-01T01:53:04;19.40;99.90
20141;DHT22;10231;47.702;9.826;2022-08-01T01:55:31;19.40;99.90
20141;DHT22;10231;47.702;9.826;2022-08-01T01:57:59;19.30;99.90
20141;DHT22;10231;47.702;9.826;2022-08-01T02:00:26;19.30;99.90
20141;DHT22;10231;47.702;9.826;2022-08-01T02:02:54;19.20;99.90
20141;DHT22;10231;47.702;9.826;2022-08-01T02:05:22;19.20;99.90
20141;DHT22;10231;47.702;9.826;2022-08-01T02:07:50;19.10;99.90
20141;DHT22;10231;47.702;9.826;2022-08-01T02:10:18;19.10;99.90
20141;DHT22;10231;47.702;9.826;2022-08-01T02:12:45;19.20;99.90
20141;DHT22;10231;47.702;9.826;2022-08-01T02:15:14;19.20;99.90
20141;DHT22;10231;47.702;9.826;2022-08-01T02:17:45;19.20;99.90
20141;DHT22;10231;47.702;9.826;2022-08-01T02:20:12;19.20;99.90
20141;DHT22;10231;47.702;9.826;2022-08-01T02:22:51;19.10;99.90
20141;DHT22;10231;47.702;9.826;2022-08-01T02:25:27;19.10;99.90
20141;DHT22;10231;47.702;9.826;2022-08-01T02:30:44;19.10;99.90
20141;DHT22;10231;47.702;9.826;2022-08-01T02:33:20;19.10;99.90
20141;DHT22;10231;47.702;9.826;2022-08-01T02:35:50;19.00;99.90
20141;DHT22;10231;47.702;9.826;2022-08-01T02:38:17;19.00;99.90
20141;DHT22;10231;47.702;9.826;2022-08-01T02:40:45;18.90;99.90
20141;DHT22;10231;47.702;9.826;2022-08-01T02:43:13;19.00;99.90
20141;DHT22;10231;47.702;9.826;2022-08-01T02:45:44;18.90;99.90
20141;DHT22;10231;47.702;9.826;2022-08-01T02:48:14;18.90;99.90
20141;DHT22;10231;47.702;9.826;2022-08-01T02:50:43;18.90;99.90
20141;DHT22;10231;47.702;9.826;2022-08-01T02:53:12;18.90;99.90
20141;DHT22;10231;47.702;9.826;2022-08-01T02:55:39;18.90;99.90
20141;DHT22;10231;47.702;9.826;2022-08-01T02:58:07;18.90;99.90
20141;DHT22;10231;47.702;9.826;2022-08-01T03:00:33;18.80;99.90
20141;DHT22;10231;47.702;9.826;2022-08-01T03:03:01;18.80;99.90
20141;DHT22;10231;47.702;9.826;2022-08-01T03:05:28;18.80;99.90
20141;DHT22;10231;47.702;9.826;2022-08-01T03:07:56;18.80;99.90
20141;DHT22;10231;47.702;9.826;2022-08-01T03:10:23;18.80;99.90
20141;DHT22;10231;47.702;9.826;2022-08-01T03:12:50;18.70;99.90
20141;DHT22;10231;47.702;9.826;2022-08-01T03:15:17;18.80;99.90
20141;DHT22;10231;47.702;9.826;2022-08-01T03:17:44;18.70;99.90
20141;DHT22;10231;47.702;9.826;2022-08-01T03:20:13;18.60;99.90
20141;DHT22;10231;47.702;9.826;2022-08-01T03:22:40;18.50;99.90
20141;DHT22;10231;47.702;9.826;2022-08-01T03:25:08;18.40;99.90
20141;DHT22;10231;47.702;9.826;2022-08-01T03:27:36;18.40;99.90
20141;DHT22;10231;47.702;9.826;2022-08-01T03:30:04;18.40;99.90
20141;DHT22;10231;47.702;9.826;2022-08-01T03:32:30;18.40;99.90
20141;DHT22;10231;47.702;9.826;2022-08-01T03:34:57;18.40;99.90
20141;DHT22;10231;47.702;9.826;2022-08-01T03:37:29;18.40;99.90
20141;DHT22;10231;47.702;9.826;2022-08-01T03:40:08;18.40;99.90
20141;DHT22;10231;47.702;9.826;2022-08-01T03:42:42;18.40;99.90
20141;DHT22;10231;47.702;9.826;2022-08-01T03:45:13;18.40;99.90
20141;DHT22;10231;47.702;9.826;2022-08-01T03:47:43;18.40;99.90
20141;DHT22;10231;47.702;9.826;2022-08-01T03:50:10;18.40;99.90
20141;DHT22;10231;47.702;9.826;2022-08-01T03:52:38;18.40;99.90
20141;DHT22;10231;47.702;9.826;2022-08-01T03:55:06;18.40;99.90
20141;DHT22;10231;47.702;9.826;2022-08-01T03:57:33;18.50;99.90
20141;DHT22;10231;47.702;9.826;2022-08-01T04:00:00;18.40;99.90
20141;DHT22;10231;47.702;9.826;2022-08-01T04:02:29;18.40;99.90
20141;DHT22;10231;47.702;9.826;2022-08-01T04:04:55;18.40;99.90
20141;DHT22;10231;47.702;9.826;2022-08-01T04:07:26;18.40;99.90
20141;DHT22;10231;47.702;9.826;2022-08-01T04:09:52;18.40;99.90
20141;DHT22;10231;47.702;9.826;2022-08-01T04:12:18;18.40;99.90
20141;DHT22;10231;47.702;9.826;2022-08-01T04:14:44;18.40;99.90
20141;DHT22;10231;47.702;9.826;2022-08-01T04:17:10;18.40;99.90
20141;DHT22;10231;47.702;9.826;2022-08-01T04:19:35;18.30;99.90
20141;DHT22;10231;47.702;9.826;2022-08-01T04:22:01;18.30;99.90
20141;DHT22;10231;47.702;9.826;2022-08-01T04:24:29;18.30;99.90
20141;DHT22;10231;47.702;9.826;2022-08-01T04:26:58;18.30;99.90
20141;DHT22;10231;47.702;9.826;2022-08-01T04:29:25;18.20;99.90
20141;DHT22;10231;47.702;9.826;2022-08-01T04:31:53;18.30;99.90
20141;DHT22;10231;47.702;9.826;2022-08-01T04:34:22;18.30;99.90
20141;DHT22;10231;47.702;9.826;2022-08-01T04:36:50;18.30;99.90
20141;DHT22;10231;47.702;9.826;2022-08-01T04:39:18;18.20;99.90
20141;DHT22;10231;47.702;9.826;2022-08-01T04:41:45;18.20;99.90
20141;DHT22;10231;47.702;9.826;2022-08-01T04:44:13;18.20;99.90
20141;DHT22;10231;47.702;9.826;2022-08-01T04:46:39;18.30;99.90
20141;DHT22;10231;47.702;9.826;2022-08-01T04:49:06;18.20;99.90
20141;DHT22;10231;47.702;9.826;2022-08-01T04:51:34;18.30;99.90
20141;DHT22;10231;47.702;9.826;2022-08-01T04:54:00;18.30;99.90
20141;DHT22;10231;47.702;9.826;2022-08-01T04:56:26;18.20;99.90
20141;DHT22;10231;47.702;9.826;2022-08-01T04:58:52;18.20;99.90
20141;DHT22;10231;47.702;9.826;2022-08-01T05:01:38;18.10;99.90
20141;DHT22;10231;47.702;9.826;2022-08-01T05:04:04;18.20;99.90
20141;DHT22;10231;47.702;9.826;2022-08-01T05:06:29;18.30;99.90
20141;DHT22;10231;47.702;9.826;2022-08-01T05:08:55;18.20;99.90
20141;DHT22;10231;47.702;9.826;2022-08-01T05:11:21;18.30;99.90
20141;DHT22;10231;47.702;9.826;2022-08-01T05:13:47;18.30;99.90
20141;DHT22;10231;47.702;9.826;2022-08-01T05:16:13;18.40;99.90
20141;DHT22;10231;47.702;9.826;2022-08-01T05:18:39;18.40;99.90
20141;DHT22;10231;47.702;9.826;2022-08-01T05:21:04;18.40;99.90
20141;DHT22;10231;47.702;9.826;2022-08-01T05:23:30;18.50;99.90
20141;DHT22;10231;47.702;9.826;2022-08-01T05:25:56;18.60;99.90
20141;DHT22;10231;47.702;9.826;2022-08-01T05:28:21;18.60;99.90
20141;DHT22;10231;47.702;9.826;2022-08-01T05:30:47;18.70;99.90
20141;DHT22;10231;47.702;9.826;2022-08-01T05:33:12;18.70;99.90
20141;DHT22;10231;47.702;9.826;2022-08-01T05:35:38;18.80;99.90
20141;DHT22;10231;47.702;9.826;2022-08-01T05:38:04;18.80;99.90
20141;DHT22;10231;47.702;9.826;2022-08-01T05:40:29;18.80;99.90
20141;DHT22;10231;47.702;9.826;2022-08-01T05:42:55;18.90;99.90
20141;DHT22;10231;47.702;9.826;2022-08-01T05:45:20;18.90;99.90
20141;DHT22;10231;47.702;9.826;2022-08-01T05:47:46;19.00;99.90
20141;DHT22;10231;47.702;9.826;2022-08-01T05:50:12;19.10;99.90
20141;DHT22;10231;47.702;9.826;2022-08-01T05:52:37;19.20;99.90
20141;DHT22;10231;47.702;9.826;2022-08-01T05:55:04;19.30;99.90
20141;DHT22;10231;47.702;9.826;2022-08-01T05:57:30;19.30;99.90
20141;DHT22;10231;47.702;9.826;2022-08-01T05:59:55;19.30;99.90
20141;DHT22;10231;47.702;9.826;2022-08-01T06:02:21;19.40;99.90
20141;DHT22;10231;47.702;9.826;2022-08-01T06:04:46;19.40;99.90
20141;DHT22;10231;47.702;9.826;2022-08-01T06:07:12;19.50;99.90
20141;DHT22;10231;47.702;9.826;2022-08-01T06:09:38;19.50;99.90
20141;DHT22;10231;47.702;9.826;2022-08-01T06:12:03;19.70;99.90
20141;DHT22;10231;47.702;9.826;2022-08-01T06:14:29;19.70;99.90
20141;DHT22;10231;47.702;9.826;2022-08-01T06:16:55;19.80;99.90
20141;DHT22;10231;47.702;9.826;2022-08-01T06:19:21;19.90;99.90
20141;DHT22;10231;47.702;9.826;2022-08-01T06:21:46;19.90;99.90
20141;DHT22;10231;47.702;9.826;2022-08-01T06:24:12;20.00;99.90
20141;DHT22;10231;47.702;9.826;2022-08-01T06:26:38;20.00;99.90
20141;DHT22;10231;47.702;9.826;2022-08-01T06:29:03;20.10;99.90
20141;DHT22;10231;47.702;9.826;2022-08-01T06:31:29;20.20;99.90
20141;DHT22;10231;47.702;9.826;2022-08-01T06:33:56;20.30;99.90
20141;DHT22;10231;47.702;9.826;2022-08-01T06:36:22;20.30;99.90
20141;DHT22;10231;47.702;9.826;2022-08-01T06:38:48;20.40;99.90
20141;DHT22;10231;47.702;9.826;2022-08-01T06:41:13;20.50;99.90
20141;DHT22;10231;47.702;9.826;2022-08-01T06:43:39;20.60;99.90
20141;DHT22;10231;47.702;9.826;2022-08-01T06:46:05;20.60;99.90
20141;DHT22;10231;47.702;9.826;2022-08-01T06:48:31;20.70;99.90
20141;DHT22;10231;47.702;9.826;2022-08-01T06:50:56;20.80;99.90
20141;DHT22;10231;47.702;9.826;2022-08-01T06:53:37;20.70;99.90
20141;DHT22;10231;47.702;9.826;2022-08-01T06:56:04;20.70;99.90
20141;DHT22;10231;47.702;9.826;2022-08-01T06:58:30;20.80;99.90
20141;DHT22;10231;47.702;9.826;2022-08-01T07:00:55;20.80;99.90
20141;DHT22;10231;47.702;9.826;2022-08-01T07:03:21;20.80;99.90
20141;DHT22;10231;47.702;9.826;2022-08-01T07:05:47;20.90;99.90
20141;DHT22;10231;47.702;9.826;2022-08-01T07:08:12;20.90;99.90
20141;DHT22;10231;47.702;9.826;2022-08-01T07:10:38;20.90;99.90
20141;DHT22;10231;47.702;9.826;2022-08-01T07:13:03;21.00;99.90
20141;DHT22;10231;47.702;9.826;2022-08-01T07:15:29;21.10;99.90
20141;DHT22;10231;47.702;9.826;2022-08-01T07:17:55;21.10;99.90
20141;DHT22;10231;47.702;9.826;2022-08-01T07:20:22;21.10;99.90
20141;DHT22;10231;47.702;9.826;2022-08-01T07:22:48;21.20;99.90
20141;DHT22;10231;47.702;9.826;2022-08-01T07:25:14;21.20;99.90
20141;DHT22;10231;47.702;9.826;2022-08-01T07:27:39;21.20;99.90
20141;DHT22;10231;47.702;9.826;2022-08-01T07:30:05;21.20;99.90
20141;DHT22;10231;47.702;9.826;2022-08-01T07:32:31;21.30;99.90
20141;DHT22;10231;47.702;9.826;2022-08-01T07:34:57;21.30;99.90
20141;DHT22;10231;47.702;9.826;2022-08-01T07:37:23;21.30;99.90
20141;DHT22;10231;47.702;9.826;2022-08-01T07:39:49;21.30;99.90
20141;DHT22;10231;47.702;9.826;2022-08-01T07:42:15;21.30;99.90
20141;DHT22;10231;47.702;9.826;2022-08-01T07:44:41;21.30;99.90
20141;DHT22;10231;47.702;9.826;2022-08-01T07:47:06;21.40;99.90
20141;DHT22;10231;47.702;9.826;2022-08-01T07:49:32;21.40;99.90
20141;DHT22;10231;47.702;9.826;2022-08-01T07:51:58;21.40;99.90
20141;DHT22;10231;47.702;9.826;2022-08-01T07:54:23;21.50;99.90
20141;DHT22;10231;47.702;9.826;2022-08-01T07:56:50;21.50;99.90
20141;DHT22;10231;47.702;9.826;2022-08-01T07:59:16;21.50;99.90
20141;DHT22;10231;47.702;9.826;2022-08-01T08:01:48;21.50;99.90
20141;DHT22;10231;47.702;9.826;2022-08-01T08:04:14;21.60;99.90
20141;DHT22;10231;47.702;9.826;2022-08-01T08:06:40;21.60;99.90
20141;DHT22;10231;47.702;9.826;2022-08-01T08:09:06;21.70;99.90
20141;DHT22;10231;47.702;9.826;2022-08-01T08:11:32;21.80;99.90
20141;DHT22;10231;47.702;9.826;2022-08-01T08:13:58;21.80;99.90
20141;DHT22;10231;47.702;9.826;2022-08-01T08:16:23;21.80;99.90
20141;DHT22;10231;47.702;9.826;2022-08-01T08:18:49;21.80;99.90
20141;DHT22;10231;47.702;9.826;2022-08-01T08:21:14;21.90;99.90
20141;DHT22;10231;47.702;9.826;2022-08-01T08:23:40;21.90;99.90
20141;DHT22;10231;47.702;9.826;2022-08-01T08:26:24;21.90;99.90
20141;DHT22;10231;47.702;9.826;2022-08-01T08:28:50;21.90;99.90
20141;DHT22;10231;47.702;9.826;2022-08-01T08:31:16;22.10;99.90
20141;DHT22;10231;47.702;9.826;2022-08-01T08:33:41;22.10;99.90
20141;DHT22;10231;47.702;9.826;2022-08-01T08:36:07;22.20;99.90
20141;DHT22;10231;47.702;9.826;2022-08-01T08:38:33;22.30;99.90
20141;DHT22;10231;47.702;9.826;2022-08-01T08:40:59;22.20;99.90
20141;DHT22;10231;47.702;9.826;2022-08-01T08:43:25;22.20;99.90
20141;DHT22;10231;47.702;9.826;2022-08-01T08:45:52;22.20;99.90
20141;DHT22;10231;47.702;9.826;2022-08-01T08:48:17;22.20;99.90
20141;DHT22;10231;47.702;9.826;2022-08-01T08:50:43;22.30;99.90
20141;DHT22;10231;47.702;9.826;2022-08-01T08:53:12;22.30;99.90
20141;DHT22;10231;47.702;9.826;2022-08-01T08:55:39;22.30;99.90
20141;DHT22;10231;47.702;9.826;2022-08-01T08:58:12;22.30;99.90
20141;DHT22;10231;47.702;9.826;2022-08-01T09:00:41;22.30;99.90
20141;DHT22;10231;47.702;9.826;2022-08-01T09:03:07;22.40;99.90
20141;DHT22;10231;47.702;9.826;2022-08-01T09:05:35;22.40;99.90
20141;DHT22;10231;47.702;9.826;2022-08-01T09:08:01;22.50;99.90
20141;DHT22;10231;47.702;9.826;2022-08-01T09:10:27;22.50;99.90
20141;DHT22;10231;47.702;9.826;2022-08-01T09:13:10;22.50;99.90
20141;DHT22;10231;47.702;9.826;2022-08-01T09:15:45;22.50;99.90
20141;DHT22;10231;47.702;9.826;2022-08-01T09:18:33;22.60;99.90
20141;DHT22;10231;47.702;9.826;2022-08-01T09:21:21;22.70;99.90
20141;DHT22;10231;47.702;9.826;2022-08-01T09:23:53;22.70;99.90
20141;DHT22;10231;47.702;9.826;2022-08-01T09:26:31;22.80;99.90
20141;DHT22;10231;47.702;9.826;2022-08-01T09:28:57;22.80;99.90
20141;DHT22;10231;47.702;9.826;2022-08-01T09:31:26;22.80;99.90
20141;DHT22;10231;47.702;9.826;2022-08-01T09:33:59;22.80;99.90
20141;DHT22;10231;47.702;9.826;2022-08-01T09:36:48;22.80;99.90
20141;DHT22;10231;47.702;9.826;2022-08-01T09:39:20;22.90;99.90
20141;DHT22;10231;47.702;9.826;2022-08-01T09:41:47;23.00;99.90
20141;DHT22;10231;47.702;9.826;2022-08-01T09:44:14;23.00;99.90
20141;DHT22;10231;47.702;9.826;2022-08-01T09:46:54;23.00;99.90
20141;DHT22;10231;47.702;9.826;2022-08-01T09:49:31;23.10;99.90
20141;DHT22;10231;47.702;9.826;2022-08-01T09:51:58;23.10;99.90
20141;DHT22;10231;47.702;9.826;2022-08-01T09:54:33;23.10;99.90
20141;DHT22;10231;47.702;9.826;2022-08-01T09:57:16;23.10;99.90
20141;DHT22;10231;47.702;9.826;2022-08-01T09:59:45;23.10;99.90
20141;DHT22;10231;47.702;9.826;2022-08-01T10:02:26;23.20;99.90
20141;DHT22;10231;47.702;9.826;2022-08-01T10:04:52;23.20;99.90
20141;DHT22;10231;47.702;9.826;2022-08-01T10:07:18;23.20;99.90
20141;DHT22;10231;47.702;9.826;2022-08-01T10:09:45;23.10;99.90
20141;DHT22;10231;47.702;9.826;2022-08-01T10:12:14;23.20;99.90
20141;DHT22;10231;47.702;9.826;2022-08-01T10:14:40;23.20;99.90
20141;DHT22;10231;47.702;9.826;2022-08-01T10:17:09;23.30;99.90
20141;DHT22;10231;47.702;9.826;2022-08-01T10:19:36;23.50;99.90
20141;DHT22;10231;47.702;9.826;2022-08-01T10:25:40;23.40;99.90
20141;DHT22;10231;47.702;9.826;2022-08-01T10:28:13;23.50;99.90
20141;DHT22;10231;47.702;9.826;2022-08-01T10:30:41;23.50;99.90
20141;DHT22;10231;47.702;9.826;2022-08-01T10:33:07;23.50;99.90
20141;DHT22;10231;47.702;9.826;2022-08-01T10:35:33;23.60;99.90
20141;DHT22;10231;47.702;9.826;2022-08-01T10:37:59;23.50;99.90
20141;DHT22;10231;47.702;9.826;2022-08-01T10:40:25;23.60;99.90
20141;DHT22;10231;47.702;9.826;2022-08-01T10:42:53;23.60;99.90
20141;DHT22;10231;47.702;9.826;2022-08-01T10:45:19;23.70;99.90
20141;DHT22;10231;47.702;9.826;2022-08-01T10:48:04;23.80;99.90
20141;DHT22;10231;47.702;9.826;2022-08-01T10:50:35;23.80;99.90
20141;DHT22;10231;47.702;9.826;2022-08-01T10:58:11;23.90;99.90
20141;DHT22;10231;47.702;9.826;2022-08-01T11:00:36;23.90;99.90
20141;DHT22;10231;47.702;9.826;2022-08-01T11:03:03;23.90;99.90
20141;DHT22;10231;47.702;9.826;2022-08-01T11:05:34;23.90;99.90
20141;DHT22;10231;47.702;9.826;2022-08-01T11:08:10;24.00;99.90
20141;DHT22;10231;47.702;9.826;2022-08-01T11:10:41;24.10;99.90
20141;DHT22;10231;47.702;9.826;2022-08-01T11:13:08;24.20;99.90
20141;DHT22;10231;47.702;9.826;2022-08-01T11:15:37;24.30;99.60
20141;DHT22;10231;47.702;9.826;2022-08-01T11:21:02;24.50;99.40
20141;DHT22;10231;47.702;9.826;2022-08-01T11:23:29;24.50;99.90
20141;DHT22;10231;47.702;9.826;2022-08-01T11:28:28;24.60;99.90
20141;DHT22;10231;47.702;9.826;2022-08-01T11:38:40;24.80;99.90
20141;DHT22;10231;47.702;9.826;2022-08-01T11:44:11;24.90;99.90
20141;DHT22;10231;47.702;9.826;2022-08-01T11:46:58;24.90;99.80
20141;DHT22;10231;47.702;9.826;2022-08-01T11:52:29;24.90;98.60
20141;DHT22;10231;47.702;9.826;2022-08-01T11:54:57;24.90;98.40
20141;DHT22;10231;47.702;9.826;2022-08-01T11:57:25;24.90;97.10
20141;DHT22;10231;47.702;9.826;2022-08-01T11:59:54;24.90;96.30
20141;DHT22;10231;47.702;9.826;2022-08-01T12:02:33;24.90;96.20
20141;DHT22;10231;47.702;9.826;2022-08-01T12:05:00;24.90;96.80
20141;DHT22;10231;47.702;9.826;2022-08-01T12:07:28;25.00;96.50
20141;DHT22;10231;47.702;9.826;2022-08-01T12:10:10;25.10;95.40
20141;DHT22;10231;47.702;9.826;2022-08-01T12:12:42;25.30;97.00
20141;DHT22;10231;47.702;9.826;2022-08-01T12:15:09;25.40;96.40
20141;DHT22;10231;47.702;9.826;2022-08-01T12:17:38;25.40;96.40
20141;DHT22;10231;47.702;9.826;2022-08-01T12:20:06;25.50;96.00
20141;DHT22;10231;47.702;9.826;2022-08-01T12:22:33;25.50;94.00
20141;DHT22;10231;47.702;9.826;2022-08-01T12:25:12;25.60;91.70
20141;DHT22;10231;47.702;9.826;2022-08-01T12:27:41;25.60;91.80
20141;DHT22;10231;47.702;9.826;2022-08-01T12:30:13;25.70;91.40
20141;DHT22;10231;47.702;9.826;2022-08-01T12:32:40;25.80;91.50
20141;DHT22;10231;47.702;9.826;2022-08-01T12:35:09;25.80;89.20
20141;DHT22;10231;47.702;9.826;2022-08-01T12:37:47;25.90;90.20
20141;DHT22;10231;47.702;9.826;2022-08-01T12:40:21;26.00;86.20
20141;DHT22;10231;47.702;9.826;2022-08-01T12:42:50;26.00;87.80
20141;DHT22;10231;47.702;9.826;2022-08-01T12:45:19;26.10;90.40
20141;DHT22;10231;47.702;9.826;2022-08-01T12:47:46;26.10;87.90
20141;DHT22;10231;47.702;9.826;2022-08-01T12:50:22;26.20;85.70
20141;DHT22;10231;47.702;9.826;2022-08-01T12:52:49;26.30;87.80
20141;DHT22;10231;47.702;9.826;2022-08-01T12:55:20;26.40;90.40
20141;DHT22;10231;47.702;9.826;2022-08-01T12:57:50;26.50;89.30
20141;DHT22;10231;47.702;9.826;2022-08-01T13:00:18;26.60;87.70
20141;DHT22;10231;47.702;9.826;2022-08-01T13:02:46;26.70;89.10
20141;DHT22;10231;47.702;9.826;2022-08-01T13:05:12;26.80;86.90
20141;DHT22;10231;47.702;9.826;2022-08-01T13:10:10;26.80;85.90
20141;DHT22;10231;47.702;9.826;2022-08-01T13:12:36;26.90;85.80
20141;DHT22;10231;47.702;9.826;2022-08-01T13:15:32;27.00;84.40
20141;DHT22;10231;47.702;9.826;2022-08-01T13:18:02;27.00;84.00
20141;DHT22;10231;47.702;9.826;2022-08-01T13:20:46;27.10;84.70
20141;DHT22;10231;47.702;9.826;2022-08-01T13:23:17;27.20;83.90
20141;DHT22;10231;47.702;9.826;2022-08-01T13:25:48;27.30;84.20
20141;DHT22;10231;47.702;9.826;2022-08-01T13:28:22;27.30;84.10
20141;DHT22;10231;47.702;9.826;2022-08-01T13:30:59;27.30;79.40
20141;DHT22;10231;47.702;9.826;2022-08-01T13:33:26;27.30;76.80
20141;DHT22;10231;47.702;9.826;2022-08-01T13:35:54;27.20;78.40
20141;DHT22;10231;47.702;9.826;2022-08-01T13:38:21;27.30;79.60
20141;DHT22;10231;47.702;9.826;2022-08-01T13:41:07;27.40;80.20
20141;DHT22;10231;47.702;9.826;2022-08-01T13:43:34;27.50;78.30
20141;DHT22;10231;47.702;9.826;2022-08-01T13:46:00;27.50;75.20
20141;DHT22;10231;47.702;9.826;2022-08-01T13:48:29;27.40;79.50
20141;DHT22;10231;47.702;9.826;2022-08-01T13:50:55;27.50;80.60
20141;DHT22;10231;47.702;9.826;2022-08-01T13:53:20;27.50;79.10
20141;DHT22;10231;47.702;9.826;2022-08-01T13:55:46;27.60;76.90
20141;DHT22;10231;47.702;9.826;2022-08-01T13:58:12;27.70;77.50
20141;DHT22;10231;47.702;9.826;2022-08-01T14:00:37;27.80;76.50
20141;DHT22;10231;47.702;9.826;2022-08-01T14:03:03;27.80;78.70
20141;DHT22;10231;47.702;9.826;2022-08-01T14:05:29;27.90;79.50
20141;DHT22;10231;47.702;9.826;2022-08-01T14:07:55;28.00;76.90
20141;DHT22;10231;47.702;9.826;2022-08-01T14:10:21;28.10;77.20
20141;DHT22;10231;47.702;9.826;2022-08-01T14:12:47;28.10;78.60
20141;DHT22;10231;47.702;9.826;2022-08-01T14:15:13;28.30;75.10
20141;DHT22;10231;47.702;9.826;2022-08-01T14:17:39;28.40;75.60
20141;DHT22;10231;47.702;9.826;2022-08-01T14:20:05;28.50;74.20
20141;DHT22;10231;47.702;9.826;2022-08-01T14:22:30;28.60;74.30
20141;DHT22;10231;47.702;9.826;2022-08-01T14:24:56;28.70;71.00
20141;DHT22;10231;47.702;9.826;2022-08-01T14:27:22;28.80;72.20
20141;DHT22;10231;47.702;9.826;2022-08-01T14:29:48;28.80;70.40
20141;DHT22;10231;47.702;9.826;2022-08-01T14:32:13;28.90;69.20
20141;DHT22;10231;47.702;9.826;2022-08-01T14:34:39;29.10;69.00
20141;DHT22;10231;47.702;9.826;2022-08-01T14:37:04;29.10;68.20
20141;DHT22;10231;47.702;9.826;2022-08-01T14:39:30;29.10;70.00
20141;DHT22;10231;47.702;9.826;2022-08-01T14:41:55;29.20;69.10
20141;DHT22;10231;47.702;9.826;2022-08-01T14:44:21;29.30;65.20
20141;DHT22;10231;47.702;9.826;2022-08-01T14:46:46;29.30;67.70
20141;DHT22;10231;47.702;9.826;2022-08-01T14:49:13;29.50;67.00
20141;DHT22;10231;47.702;9.826;2022-08-01T14:51:39;29.60;65.60
20141;DHT22;10231;47.702;9.826;2022-08-01T14:54:05;29.50;65.60
20141;DHT22;10231;47.702;9.826;2022-08-01T14:56:31;29.50;64.30
20141;DHT22;10231;47.702;9.826;2022-08-01T14:58:57;29.70;64.80
20141;DHT22;10231;47.702;9.826;2022-08-01T15:01:24;29.70;64.00
20141;DHT22;10231;47.702;9.826;2022-08-01T15:03:49;29.80;65.50
20141;DHT22;10231;47.702;9.826;2022-08-01T15:06:16;30.00;67.80
20141;DHT22;10231;47.702;9.826;2022-08-01T15:08:42;30.10;66.50
20141;DHT22;10231;47.702;9.826;2022-08-01T15:11:08;30.40;68.70
20141;DHT22;10231;47.702;9.826;2022-08-01T15:13:34;30.50;64.40
20141;DHT22;10231;47.702;9.826;2022-08-01T15:16:00;30.60;64.20
20141;DHT22;10231;47.702;9.826;2022-08-01T15:18:26;30.70;63.60
20141;DHT22;10231;47.702;9.826;2022-08-01T15:20:52;30.80;65.30
20141;DHT22;10231;47.702;9.826;2022-08-01T15:23:18;30.90;65.00
20141;DHT22;10231;47.702;9.826;2022-08-01T15:25:44;31.10;65.90
20141;DHT22;10231;47.702;9.826;2022-08-01T15:28:09;31.10;60.90
20141;DHT22;10231;47.702;9.826;2022-08-01T15:30:35;31.10;61.90
20141;DHT22;10231;47.702;9.826;2022-08-01T15:33:01;31.20;62.00
20141;DHT22;10231;47.702;9.826;2022-08-01T15:35:26;31.40;62.00
20141;DHT22;10231;47.702;9.826;2022-08-01T15:37:52;31.40;61.40
20141;DHT22;10231;47.702;9.826;2022-08-01T15:40:17;31.40;62.70
20141;DHT22;10231;47.702;9.826;2022-08-01T15:42:44;31.40;61.50
20141;DHT22;10231;47.702;9.826;2022-08-01T15:45:10;31.10;61.00
20141;DHT22;10231;47.702;9.826;2022-08-01T15:47:35;31.00;67.50
20141;DHT22;10231;47.702;9.826;2022-08-01T15:50:01;30.70;71.80
20141;DHT22;10231;47.702;9.826;2022-08-01T15:52:27;30.40;77.10
20141;DHT22;10231;47.702;9.826;2022-08-01T15:54:53;30.20;76.20
20141;DHT22;10231;47.702;9.826;2022-08-01T15:57:18;30.20;77.50
20141;DHT22;10231;47.702;9.826;2022-08-01T15:59:44;30.30;78.20
20141;DHT22;10231;47.702;9.826;2022-08-01T16:02:10;30.40;80.60
20141;DHT22;10231;47.702;9.826;2022-08-01T16:04:35;30.30;80.90
20141;DHT22;10231;47.702;9.826;2022-08-01T16:07:01;30.20;80.50
20141;DHT22;10231;47.702;9.826;2022-08-01T16:09:27;29.90;81.70
20141;DHT22;10231;47.702;9.826;2022-08-01T16:11:52;29.60;83.30
20141;DHT22;10231;47.702;9.826;2022-08-01T16:14:18;29.20;84.90
20141;DHT22;10231;47.702;9.826;2022-08-01T16:16:46;29.00;86.80
20141;DHT22;10231;47.702;9.826;2022-08-01T16:19:11;28.70;87.50
20141;DHT22;10231;47.702;9.826;2022-08-01T16:21:37;28.40;89.20
20141;DHT22;10231;47.702;9.826;2022-08-01T16:24:04;28.00;89.70